Orion_s — HKJC7 — position and weather

sailwx.info

Track history (hours):
 
Tides and Currents Weather Stations Pressure Air Temp Water Temp Dewpoint Dewpoint Depression Visibility Wind Speed Wind Dir Waves Ship Positions

Orion_s

Last reported at 2018-Jan-26 23:37 UTC. Time now 2018-Feb-20 15:44 UTC.
Position N 09°14' W 079°55'.
Warning: this ship's position is 24 days out of date.

Length 93 m; draft 4 m.

Type: Diving. MMSI: 730151013.

Date/timePositionNaut miles runAvg speedWind from/ knotsBaromVisibWave heightAir tempDewpointWater temp
2018-Jan-26 23:37N 09°14' W 079°55'1 8.0
2018-Jan-26 23:27N 09°16' W 079°55'1 1.3
2018-Jan-26 23:00N 09°16' W 079°55'0 0.6
2018-Jan-26 22:30N 09°17' W 079°55'0 0.5
2018-Jan-26 22:00N 09°17' W 079°55'1 2.1
2018-Jan-26 21:30N 09°18' W 079°55'3 6.3
2018-Jan-26 21:00N 09°21' W 079°55'2 3.0
2018-Jan-26 20:29N 09°22' W 079°54'0 0.0
2018-Jan-26 19:56N 09°22' W 079°54'0 0.1
2018-Jan-26 19:28N 09°22' W 079°54'0 0.0
2018-Jan-26 18:59N 09°22' W 079°54'0 0.0
2018-Jan-26 18:29N 09°22' W 079°54'0 0.0
2018-Jan-26 17:58N 09°22' W 079°54'0 0.0
2018-Jan-26 17:30N 09°22' W 079°54'0 0.0
2018-Jan-26 16:57N 09°22' W 079°54'0 0.0
2018-Jan-26 16:27N 09°22' W 079°54'0 0.1
2018-Jan-26 15:59N 09°22' W 079°54'0 0.0
2018-Jan-26 15:28N 09°22' W 079°54'0 0.0
2018-Jan-26 14:58N 09°22' W 079°54'0 0.0
2018-Jan-26 14:28N 09°22' W 079°54'0 0.1
2018-Jan-26 13:59N 09°22' W 079°54'0 0.0
2018-Jan-26 13:27N 09°22' W 079°54'0 0.1
2018-Jan-26 12:57N 09°22' W 079°54'0 0.0
2018-Jan-26 12:28N 09°22' W 079°54'0 0.0
2018-Jan-26 11:54N 09°22' W 079°54'0 0.0
2018-Jan-26 11:30N 09°22' W 079°54'0 0.0
2018-Jan-26 10:58N 09°22' W 079°54'0 0.0
2018-Jan-26 10:28N 09°22' W 079°54'0 0.0
2018-Jan-26 09:59N 09°22' W 079°54'0 0.0
2018-Jan-26 09:28N 09°22' W 079°54'0 0.0
2018-Jan-26 08:58N 09°22' W 079°54'0 0.0
2018-Jan-26 08:30N 09°22' W 079°54'0 0.0
2018-Jan-26 08:00N 09°22' W 079°54'0 0.0
2018-Jan-26 07:29N 09°22' W 079°54'0 0.0
2018-Jan-26 06:57N 09°22' W 079°54'0 0.0
2018-Jan-26 06:30N 09°22' W 079°54'0 0.0
2018-Jan-26 05:58N 09°22' W 079°54'0 0.0
2018-Jan-26 05:29N 09°22' W 079°54'0 0.0
2018-Jan-26 05:00N 09°22' W 079°54'0 0.0
2018-Jan-26 04:29N 09°22' W 079°54'0 0.0
2018-Jan-26 03:59N 09°22' W 079°54'0 0.0
2018-Jan-26 03:29N 09°22' W 079°54'0 0.0
2018-Jan-26 02:58N 09°22' W 079°54'0 0.0
2018-Jan-26 02:29N 09°22' W 079°54'0 0.0
2018-Jan-26 01:59N 09°22' W 079°54'0 0.0
2018-Jan-26 01:28N 09°22' W 079°54'0 0.0
2018-Jan-26 01:00N 09°22' W 079°54'0 0.0
2018-Jan-26 00:28N 09°22' W 079°54'0 0.0
2018-Jan-25 23:58N 09°22' W 079°54'0 0.0
2018-Jan-25 23:30N 09°22' W 079°54'0 0.0
2018-Jan-25 22:58N 09°22' W 079°54'0 0.0
2018-Jan-25 22:28N 09°22' W 079°54'0 0.0
2018-Jan-25 21:56N 09°22' W 079°54'0 0.0
2018-Jan-25 21:30N 09°22' W 079°54'0 0.0
2018-Jan-25 21:00N 09°22' W 079°54'0 0.0
2018-Jan-25 20:30N 09°22' W 079°54'0 0.0
2018-Jan-25 20:00N 09°22' W 079°54'0 0.0
2018-Jan-25 19:30N 09°22' W 079°54'0 0.0
2018-Jan-25 19:00N 09°22' W 079°54'0 0.0
2018-Jan-25 18:30N 09°22' W 079°54'0 0.0
2018-Jan-25 18:00N 09°22' W 079°54'0 0.1
2018-Jan-25 17:30N 09°22' W 079°54'0 0.9
2018-Jan-25 17:00N 09°23' W 079°55'5 9.2
2018-Jan-25 16:30N 09°27' W 079°55'  
2018-Jan-21 12:37N 10°21' W 075°30'0 0.0
2018-Jan-21 12:26N 10°21' W 075°30'0 0.0
2018-Jan-21 11:49N 10°21' W 075°30'0 0.0
2018-Jan-21 11:24N 10°21' W 075°30'0 0.0
2018-Jan-21 10:59N 10°21' W 075°30'0 0.0
2018-Jan-21 10:29N 10°21' W 075°30'0 0.0
2018-Jan-21 09:57N 10°21' W 075°30'0 0.0
2018-Jan-21 09:23N 10°21' W 075°30'0 0.0
2018-Jan-21 09:00N 10°21' W 075°30'0 0.0
2018-Jan-21 08:25N 10°21' W 075°30'0 0.0
2018-Jan-21 07:56N 10°21' W 075°30'0 0.0
2018-Jan-21 07:30N 10°21' W 075°30'0 0.0
2018-Jan-21 06:57N 10°21' W 075°30'0 0.0
2018-Jan-21 06:28N 10°21' W 075°30'0 0.0
2018-Jan-21 05:59N 10°21' W 075°30'0 0.0
2018-Jan-21 05:22N 10°21' W 075°30'0 0.0
2018-Jan-21 05:00N 10°21' W 075°30'0 0.0
2018-Jan-21 04:27N 10°21' W 075°30'0 0.0
2018-Jan-21 03:56N 10°21' W 075°30'0 0.0
2018-Jan-21 03:26N 10°21' W 075°30'0 0.0
2018-Jan-21 03:00N 10°21' W 075°30'0 0.0
2018-Jan-21 02:27N 10°21' W 075°30'0 0.0
2018-Jan-21 01:56N 10°21' W 075°30'0 0.0
2018-Jan-21 01:22N 10°21' W 075°30'0 0.0
2018-Jan-21 00:59N 10°21' W 075°30'0 0.0
2018-Jan-21 00:22N 10°21' W 075°30'0 0.0
2018-Jan-20 23:57N 10°21' W 075°30'0 0.0
2018-Jan-20 23:30N 10°21' W 075°30'0 0.0
2018-Jan-20 22:59N 10°21' W 075°30'0 0.0
2018-Jan-20 22:28N 10°21' W 075°30'0 0.0
2018-Jan-20 21:58N 10°21' W 075°30'0 0.0
2018-Jan-20 21:29N 10°21' W 075°30'0 0.0
2018-Jan-20 21:00N 10°21' W 075°30'0 0.0
2018-Jan-20 20:25N 10°21' W 075°30'0 0.0
2018-Jan-20 19:58N 10°21' W 075°30'0 0.0
2018-Jan-20 19:30N 10°21' W 075°30'0 0.0
2018-Jan-20 18:58N 10°21' W 075°30'0 0.0
2018-Jan-20 18:28N 10°21' W 075°30'0 0.0
2018-Jan-20 17:56N 10°21' W 075°30'0 0.0
2018-Jan-20 17:30N 10°21' W 075°30'0 0.0
2018-Jan-20 16:57N 10°21' W 075°30'0 0.0
2018-Jan-20 16:28N 10°21' W 075°30'0 0.0
2018-Jan-20 15:53N 10°21' W 075°30'0 0.0
2018-Jan-20 15:25N 10°21' W 075°30'0 0.0
2018-Jan-20 15:00N 10°21' W 075°30'0 0.0
2018-Jan-20 14:30N 10°21' W 075°30'0 0.0
2018-Jan-20 14:00N 10°21' W 075°30'0 0.0
2018-Jan-20 13:30N 10°21' W 075°30'0 0.0
2018-Jan-20 12:59N 10°21' W 075°30'0 0.0
2018-Jan-20 12:28N 10°21' W 075°30'0 0.0
2018-Jan-20 11:58N 10°21' W 075°30'0 0.0
2018-Jan-20 11:27N 10°21' W 075°30'0 0.0
2018-Jan-20 11:00N 10°21' W 075°30'0 0.0
2018-Jan-20 10:30N 10°21' W 075°30'0 0.0
2018-Jan-20 09:53N 10°21' W 075°30'0 0.0
2018-Jan-20 09:29N 10°21' W 075°30'0 0.0
2018-Jan-20 08:58N 10°21' W 075°30'0 0.0
2018-Jan-20 08:28N 10°21' W 075°30'0 0.0
2018-Jan-20 07:59N 10°21' W 075°30'0 0.0
2018-Jan-20 07:27N 10°21' W 075°30'0 0.0
2018-Jan-20 06:58N 10°21' W 075°30'0 0.0
2018-Jan-20 06:29N 10°21' W 075°30'0 0.0
2018-Jan-20 05:45N 10°21' W 075°30'0 0.0
2018-Jan-20 05:30N 10°21' W 075°30'0 0.0
2018-Jan-20 04:58N 10°21' W 075°30'0 0.0
2018-Jan-20 04:30N 10°21' W 075°30'0 0.0
2018-Jan-20 03:56N 10°21' W 075°30'0 0.0
2018-Jan-20 03:27N 10°21' W 075°30'0 0.0
2018-Jan-20 03:00N 10°21' W 075°30'0 0.0
2018-Jan-20 02:27N 10°21' W 075°30'0 0.0
2018-Jan-20 01:55N 10°21' W 075°30'0 0.0
2018-Jan-20 01:29N 10°21' W 075°30'0 0.0
2018-Jan-20 01:00N 10°21' W 075°30'0 0.0
2018-Jan-20 00:29N 10°21' W 075°30'0 0.0
2018-Jan-19 23:55N 10°21' W 075°30'0 0.0
2018-Jan-19 23:28N 10°21' W 075°30'0 0.0
2018-Jan-19 22:59N 10°21' W 075°30'0 0.0
2018-Jan-19 22:23N 10°21' W 075°30'0 0.0
2018-Jan-19 21:58N 10°21' W 075°30'0 0.0
2018-Jan-19 21:24N 10°21' W 075°30'0 0.0
2018-Jan-19 20:52N 10°21' W 075°30'0 0.0
2018-Jan-19 20:28N 10°21' W 075°30'0 0.0
2018-Jan-19 19:59N 10°21' W 075°30'0 0.0
2018-Jan-19 19:30N 10°21' W 075°30'0 0.0
2018-Jan-19 18:57N 10°21' W 075°30'0 0.0
2018-Jan-19 18:29N 10°21' W 075°30'0 0.0
2018-Jan-19 17:59N 10°21' W 075°30'0 0.0
2018-Jan-19 17:27N 10°21' W 075°30'0 0.0
2018-Jan-19 16:57N 10°21' W 075°30'0 0.0
2018-Jan-19 16:26N 10°21' W 075°30'0 0.0
2018-Jan-19 15:54N 10°21' W 075°30'0 0.0
2018-Jan-19 15:29N 10°21' W 075°30'0 0.0
2018-Jan-19 15:00N 10°21' W 075°30'0 0.0
2018-Jan-19 14:29N 10°21' W 075°30'0 0.0
2018-Jan-19 13:58N 10°21' W 075°30'0 0.0
2018-Jan-19 13:29N 10°21' W 075°30'0 0.0
2018-Jan-19 13:00N 10°21' W 075°30'0 0.0
2018-Jan-19 12:30N 10°21' W 075°30'0 0.0
2018-Jan-19 11:58N 10°21' W 075°30'0 0.0
2018-Jan-19 11:17N 10°21' W 075°30'0 0.0
2018-Jan-19 11:00N 10°21' W 075°30'0 0.0
2018-Jan-19 10:27N 10°21' W 075°30'0 0.0
2018-Jan-19 09:53N 10°21' W 075°30'0 0.0
2018-Jan-19 09:23N 10°21' W 075°30'0 0.0
2018-Jan-19 09:00N 10°21' W 075°30'0 0.0
2018-Jan-19 08:29N 10°21' W 075°30'0 0.0
2018-Jan-19 07:55N 10°21' W 075°30'0 0.0
2018-Jan-19 07:30N 10°21' W 075°30'0 0.0
2018-Jan-19 06:59N 10°21' W 075°30'0 0.0
2018-Jan-19 06:30N 10°21' W 075°30'0 0.0
2018-Jan-19 05:59N 10°21' W 075°30'0 0.0
2018-Jan-19 05:23N 10°21' W 075°30'0 0.0
2018-Jan-19 05:00N 10°21' W 075°30'0 0.0
2018-Jan-19 04:30N 10°21' W 075°30'0 0.0
2018-Jan-19 03:56N 10°21' W 075°30'0 0.0
2018-Jan-19 03:25N 10°21' W 075°30'0 0.0
2018-Jan-19 03:00N 10°21' W 075°30'0 0.0
2018-Jan-19 02:25N 10°21' W 075°30'0 0.0
2018-Jan-19 01:57N 10°21' W 075°30'0 0.0
2018-Jan-19 01:24N 10°21' W 075°30'0 0.0
2018-Jan-19 00:57N 10°21' W 075°30'0 0.0
2018-Jan-19 00:30N 10°21' W 075°30'0 0.0
2018-Jan-18 23:55N 10°21' W 075°30'0 0.0
2018-Jan-18 23:30N 10°21' W 075°30'0 0.0
2018-Jan-18 23:00N 10°21' W 075°30'0 0.0
2018-Jan-18 22:28N 10°21' W 075°30'0 0.0
2018-Jan-18 21:57N 10°21' W 075°30'0 0.0
2018-Jan-18 21:30N 10°21' W 075°30'0 0.0
2018-Jan-18 20:58N 10°21' W 075°30'0 0.0
2018-Jan-18 20:28N 10°21' W 075°30'0 0.0
2018-Jan-18 19:53N 10°21' W 075°30'0 0.0
2018-Jan-18 19:30N 10°21' W 075°30'0 0.0
2018-Jan-18 18:54N 10°21' W 075°30'0 0.0
2018-Jan-18 18:29N 10°21' W 075°30'0 0.0
2018-Jan-18 17:51N 10°21' W 075°30'0 0.0
2018-Jan-18 17:28N 10°21' W 075°30'0 0.0
2018-Jan-18 16:57N 10°21' W 075°30'0 0.0
2018-Jan-18 16:28N 10°21' W 075°30'0 0.0
2018-Jan-18 15:58N 10°21' W 075°30'0 0.0
2018-Jan-18 15:24N 10°21' W 075°30'0 0.0
2018-Jan-18 15:00N 10°21' W 075°30'0 0.0
2018-Jan-18 14:29N 10°21' W 075°30'0 0.0
2018-Jan-18 13:55N 10°21' W 075°30'0 0.0
2018-Jan-18 13:30N 10°21' W 075°30'0 0.0
2018-Jan-18 13:00N 10°21' W 075°30'0 0.0
2018-Jan-18 12:27N 10°21' W 075°30'0 0.0
2018-Jan-18 11:56N 10°21' W 075°30'0 0.0
2018-Jan-18 11:29N 10°21' W 075°30'0 0.0
2018-Jan-18 11:00N 10°21' W 075°30'0 0.0
2018-Jan-18 10:30N 10°21' W 075°30'0 0.0
2018-Jan-18 09:58N 10°21' W 075°30'0 0.0
2018-Jan-18 09:30N 10°21' W 075°30'0 0.0
2018-Jan-18 08:59N 10°21' W 075°30'0 0.0
2018-Jan-18 08:29N 10°21' W 075°30'0 0.0
2018-Jan-18 08:00N 10°21' W 075°30'0 0.0
2018-Jan-18 07:29N 10°21' W 075°30'0 0.0
2018-Jan-18 06:58N 10°21' W 075°30'0 0.0
2018-Jan-18 06:25N 10°21' W 075°30'0 0.0
2018-Jan-18 05:56N 10°21' W 075°30'0 0.0
2018-Jan-18 05:24N 10°21' W 075°30'0 0.0
2018-Jan-18 04:58N 10°21' W 075°30'0 0.0
2018-Jan-18 04:28N 10°21' W 075°30'0 0.0
2018-Jan-18 03:58N 10°21' W 075°30'0 0.0
2018-Jan-18 03:25N 10°21' W 075°30'0 0.0
2018-Jan-18 03:00N 10°21' W 075°30'0 0.0
2018-Jan-18 02:30N 10°21' W 075°30'0 0.0
2018-Jan-18 01:56N 10°21' W 075°30'0 0.0
2018-Jan-18 01:29N 10°21' W 075°30'0 0.0
2018-Jan-18 01:00N 10°21' W 075°30'0 0.0
2018-Jan-17 23:54N 10°21' W 075°30'  
Track history (hours):
 
Tides and Currents Weather Stations Pressure Air Temp Water Temp Dewpoint Dewpoint Depression Visibility Wind Speed Wind Dir Waves Ship Positions

Orion_s

Last reported at 2018-Jan-26 23:37 UTC. Time now 2018-Feb-20 15:44 UTC.
Position N 09°14' W 079°55'.
Warning: this ship's position is 24 days out of date.

Length 93 m; draft 4 m.

Type: Diving. MMSI: 730151013.

Date/timePositionNaut miles runAvg speedWind from/ knotsBaromVisibWave heightAir tempDewpointWater temp
2018-Jan-26 23:37N 09°14' W 079°55'1 8.0
2018-Jan-26 23:27N 09°16' W 079°55'1 1.3
2018-Jan-26 23:00N 09°16' W 079°55'0 0.6
2018-Jan-26 22:30N 09°17' W 079°55'0 0.5
2018-Jan-26 22:00N 09°17' W 079°55'1 2.1
2018-Jan-26 21:30N 09°18' W 079°55'3 6.3
2018-Jan-26 21:00N 09°21' W 079°55'2 3.0
2018-Jan-26 20:29N 09°22' W 079°54'0 0.0
2018-Jan-26 19:56N 09°22' W 079°54'0 0.1
2018-Jan-26 19:28N 09°22' W 079°54'0 0.0
2018-Jan-26 18:59N 09°22' W 079°54'0 0.0
2018-Jan-26 18:29N 09°22' W 079°54'0 0.0
2018-Jan-26 17:58N 09°22' W 079°54'0 0.0
2018-Jan-26 17:30N 09°22' W 079°54'0 0.0
2018-Jan-26 16:57N 09°22' W 079°54'0 0.0
2018-Jan-26 16:27N 09°22' W 079°54'0 0.1
2018-Jan-26 15:59N 09°22' W 079°54'0 0.0
2018-Jan-26 15:28N 09°22' W 079°54'0 0.0
2018-Jan-26 14:58N 09°22' W 079°54'0 0.0
2018-Jan-26 14:28N 09°22' W 079°54'0 0.1
2018-Jan-26 13:59N 09°22' W 079°54'0 0.0
2018-Jan-26 13:27N 09°22' W 079°54'0 0.1
2018-Jan-26 12:57N 09°22' W 079°54'0 0.0
2018-Jan-26 12:28N 09°22' W 079°54'0 0.0
2018-Jan-26 11:54N 09°22' W 079°54'0 0.0
2018-Jan-26 11:30N 09°22' W 079°54'0 0.0
2018-Jan-26 10:58N 09°22' W 079°54'0 0.0
2018-Jan-26 10:28N 09°22' W 079°54'0 0.0
2018-Jan-26 09:59N 09°22' W 079°54'0 0.0
2018-Jan-26 09:28N 09°22' W 079°54'0 0.0
2018-Jan-26 08:58N 09°22' W 079°54'0 0.0
2018-Jan-26 08:30N 09°22' W 079°54'0 0.0
2018-Jan-26 08:00N 09°22' W 079°54'0 0.0
2018-Jan-26 07:29N 09°22' W 079°54'0 0.0
2018-Jan-26 06:57N 09°22' W 079°54'0 0.0
2018-Jan-26 06:30N 09°22' W 079°54'0 0.0
2018-Jan-26 05:58N 09°22' W 079°54'0 0.0
2018-Jan-26 05:29N 09°22' W 079°54'0 0.0
2018-Jan-26 05:00N 09°22' W 079°54'0 0.0
2018-Jan-26 04:29N 09°22' W 079°54'0 0.0
2018-Jan-26 03:59N 09°22' W 079°54'0 0.0
2018-Jan-26 03:29N 09°22' W 079°54'0 0.0
2018-Jan-26 02:58N 09°22' W 079°54'0 0.0
2018-Jan-26 02:29N 09°22' W 079°54'0 0.0
2018-Jan-26 01:59N 09°22' W 079°54'0 0.0
2018-Jan-26 01:28N 09°22' W 079°54'0 0.0
2018-Jan-26 01:00N 09°22' W 079°54'0 0.0
2018-Jan-26 00:28N 09°22' W 079°54'0 0.0
2018-Jan-25 23:58N 09°22' W 079°54'0 0.0
2018-Jan-25 23:30N 09°22' W 079°54'0 0.0
2018-Jan-25 22:58N 09°22' W 079°54'0 0.0
2018-Jan-25 22:28N 09°22' W 079°54'0 0.0
2018-Jan-25 21:56N 09°22' W 079°54'0 0.0
2018-Jan-25 21:30N 09°22' W 079°54'0 0.0
2018-Jan-25 21:00N 09°22' W 079°54'0 0.0
2018-Jan-25 20:30N 09°22' W 079°54'0 0.0
2018-Jan-25 20:00N 09°22' W 079°54'0 0.0
2018-Jan-25 19:30N 09°22' W 079°54'0 0.0
2018-Jan-25 19:00N 09°22' W 079°54'0 0.0
2018-Jan-25 18:30N 09°22' W 079°54'0 0.0
2018-Jan-25 18:00N 09°22' W 079°54'0 0.1
2018-Jan-25 17:30N 09°22' W 079°54'0 0.9
2018-Jan-25 17:00N 09°23' W 079°55'5 9.2
2018-Jan-25 16:30N 09°27' W 079°55'  
2018-Jan-21 12:37N 10°21' W 075°30'0 0.0
2018-Jan-21 12:26N 10°21' W 075°30'0 0.0
2018-Jan-21 11:49N 10°21' W 075°30'0 0.0
2018-Jan-21 11:24N 10°21' W 075°30'0 0.0
2018-Jan-21 10:59N 10°21' W 075°30'0 0.0
2018-Jan-21 10:29N 10°21' W 075°30'0 0.0
2018-Jan-21 09:57N 10°21' W 075°30'0 0.0
2018-Jan-21 09:23N 10°21' W 075°30'0 0.0
2018-Jan-21 09:00N 10°21' W 075°30'0 0.0
2018-Jan-21 08:25N 10°21' W 075°30'0 0.0
2018-Jan-21 07:56N 10°21' W 075°30'0 0.0
2018-Jan-21 07:30N 10°21' W 075°30'0 0.0
2018-Jan-21 06:57N 10°21' W 075°30'0 0.0
2018-Jan-21 06:28N 10°21' W 075°30'0 0.0
2018-Jan-21 05:59N 10°21' W 075°30'0 0.0
2018-Jan-21 05:22N 10°21' W 075°30'0 0.0
2018-Jan-21 05:00N 10°21' W 075°30'0 0.0
2018-Jan-21 04:27N 10°21' W 075°30'0 0.0
2018-Jan-21 03:56N 10°21' W 075°30'0 0.0
2018-Jan-21 03:26N 10°21' W 075°30'0 0.0
2018-Jan-21 03:00N 10°21' W 075°30'0 0.0
2018-Jan-21 02:27N 10°21' W 075°30'0 0.0
2018-Jan-21 01:56N 10°21' W 075°30'0 0.0
2018-Jan-21 01:22N 10°21' W 075°30'0 0.0
2018-Jan-21 00:59N 10°21' W 075°30'0 0.0
2018-Jan-21 00:22N 10°21' W 075°30'0 0.0
2018-Jan-20 23:57N 10°21' W 075°30'0 0.0
2018-Jan-20 23:30N 10°21' W 075°30'0 0.0
2018-Jan-20 22:59N 10°21' W 075°30'0 0.0
2018-Jan-20 22:28N 10°21' W 075°30'0 0.0
2018-Jan-20 21:58N 10°21' W 075°30'0 0.0
2018-Jan-20 21:29N 10°21' W 075°30'0 0.0
2018-Jan-20 21:00N 10°21' W 075°30'0 0.0
2018-Jan-20 20:25N 10°21' W 075°30'0 0.0
2018-Jan-20 19:58N 10°21' W 075°30'0 0.0
2018-Jan-20 19:30N 10°21' W 075°30'0 0.0
2018-Jan-20 18:58N 10°21' W 075°30'0 0.0
2018-Jan-20 18:28N 10°21' W 075°30'0 0.0
2018-Jan-20 17:56N 10°21' W 075°30'0 0.0
2018-Jan-20 17:30N 10°21' W 075°30'0 0.0
2018-Jan-20 16:57N 10°21' W 075°30'0 0.0
2018-Jan-20 16:28N 10°21' W 075°30'0 0.0
2018-Jan-20 15:53N 10°21' W 075°30'0 0.0
2018-Jan-20 15:25N 10°21' W 075°30'0 0.0
2018-Jan-20 15:00N 10°21' W 075°30'0 0.0
2018-Jan-20 14:30N 10°21' W 075°30'0 0.0
2018-Jan-20 14:00N 10°21' W 075°30'0 0.0
2018-Jan-20 13:30N 10°21' W 075°30'0 0.0
2018-Jan-20 12:59N 10°21' W 075°30'0 0.0
2018-Jan-20 12:28N 10°21' W 075°30'0 0.0
2018-Jan-20 11:58N 10°21' W 075°30'0 0.0
2018-Jan-20 11:27N 10°21' W 075°30'0 0.0
2018-Jan-20 11:00N 10°21' W 075°30'0 0.0
2018-Jan-20 10:30N 10°21' W 075°30'0 0.0
2018-Jan-20 09:53N 10°21' W 075°30'0 0.0
2018-Jan-20 09:29N 10°21' W 075°30'0 0.0
2018-Jan-20 08:58N 10°21' W 075°30'0 0.0
2018-Jan-20 08:28N 10°21' W 075°30'0 0.0
2018-Jan-20 07:59N 10°21' W 075°30'0 0.0
2018-Jan-20 07:27N 10°21' W 075°30'0 0.0
2018-Jan-20 06:58N 10°21' W 075°30'0 0.0
2018-Jan-20 06:29N 10°21' W 075°30'0 0.0
2018-Jan-20 05:45N 10°21' W 075°30'0 0.0
2018-Jan-20 05:30N 10°21' W 075°30'0 0.0
2018-Jan-20 04:58N 10°21' W 075°30'0 0.0
2018-Jan-20 04:30N 10°21' W 075°30'0 0.0
2018-Jan-20 03:56N 10°21' W 075°30'0 0.0
2018-Jan-20 03:27N 10°21' W 075°30'0 0.0
2018-Jan-20 03:00N 10°21' W 075°30'0 0.0
2018-Jan-20 02:27N 10°21' W 075°30'0 0.0
2018-Jan-20 01:55N 10°21' W 075°30'0 0.0
2018-Jan-20 01:29N 10°21' W 075°30'0 0.0
2018-Jan-20 01:00N 10°21' W 075°30'0 0.0
2018-Jan-20 00:29N 10°21' W 075°30'0 0.0
2018-Jan-19 23:55N 10°21' W 075°30'0 0.0
2018-Jan-19 23:28N 10°21' W 075°30'0 0.0
2018-Jan-19 22:59N 10°21' W 075°30'0 0.0
2018-Jan-19 22:23N 10°21' W 075°30'0 0.0
2018-Jan-19 21:58N 10°21' W 075°30'0 0.0
2018-Jan-19 21:24N 10°21' W 075°30'0 0.0
2018-Jan-19 20:52N 10°21' W 075°30'0 0.0
2018-Jan-19 20:28N 10°21' W 075°30'0 0.0
2018-Jan-19 19:59N 10°21' W 075°30'0 0.0
2018-Jan-19 19:30N 10°21' W 075°30'0 0.0
2018-Jan-19 18:57N 10°21' W 075°30'0 0.0
2018-Jan-19 18:29N 10°21' W 075°30'0 0.0
2018-Jan-19 17:59N 10°21' W 075°30'0 0.0
2018-Jan-19 17:27N 10°21' W 075°30'0 0.0
2018-Jan-19 16:57N 10°21' W 075°30'0 0.0
2018-Jan-19 16:26N 10°21' W 075°30'0 0.0
2018-Jan-19 15:54N 10°21' W 075°30'0 0.0
2018-Jan-19 15:29N 10°21' W 075°30'0 0.0
2018-Jan-19 15:00N 10°21' W 075°30'0 0.0
2018-Jan-19 14:29N 10°21' W 075°30'0 0.0
2018-Jan-19 13:58N 10°21' W 075°30'0 0.0
2018-Jan-19 13:29N 10°21' W 075°30'0 0.0
2018-Jan-19 13:00N 10°21' W 075°30'0 0.0
2018-Jan-19 12:30N 10°21' W 075°30'0 0.0
2018-Jan-19 11:58N 10°21' W 075°30'0 0.0
2018-Jan-19 11:17N 10°21' W 075°30'0 0.0
2018-Jan-19 11:00N 10°21' W 075°30'0 0.0
2018-Jan-19 10:27N 10°21' W 075°30'0 0.0
2018-Jan-19 09:53N 10°21' W 075°30'0 0.0
2018-Jan-19 09:23N 10°21' W 075°30'0 0.0
2018-Jan-19 09:00N 10°21' W 075°30'0 0.0
2018-Jan-19 08:29N 10°21' W 075°30'0 0.0
2018-Jan-19 07:55N 10°21' W 075°30'0 0.0
2018-Jan-19 07:30N 10°21' W 075°30'0 0.0
2018-Jan-19 06:59N 10°21' W 075°30'0 0.0
2018-Jan-19 06:30N 10°21' W 075°30'0 0.0
2018-Jan-19 05:59N 10°21' W 075°30'0 0.0
2018-Jan-19 05:23N 10°21' W 075°30'0 0.0
2018-Jan-19 05:00N 10°21' W 075°30'0 0.0
2018-Jan-19 04:30N 10°21' W 075°30'0 0.0
2018-Jan-19 03:56N 10°21' W 075°30'0 0.0
2018-Jan-19 03:25N 10°21' W 075°30'0 0.0
2018-Jan-19 03:00N 10°21' W 075°30'0 0.0
2018-Jan-19 02:25N 10°21' W 075°30'0 0.0
2018-Jan-19 01:57N 10°21' W 075°30'0 0.0
2018-Jan-19 01:24N 10°21' W 075°30'0 0.0
2018-Jan-19 00:57N 10°21' W 075°30'0 0.0
2018-Jan-19 00:30N 10°21' W 075°30'0 0.0
2018-Jan-18 23:55N 10°21' W 075°30'0 0.0
2018-Jan-18 23:30N 10°21' W 075°30'0 0.0
2018-Jan-18 23:00N 10°21' W 075°30'0 0.0
2018-Jan-18 22:28N 10°21' W 075°30'0 0.0
2018-Jan-18 21:57N 10°21' W 075°30'0 0.0
2018-Jan-18 21:30N 10°21' W 075°30'0 0.0
2018-Jan-18 20:58N 10°21' W 075°30'0 0.0
2018-Jan-18 20:28N 10°21' W 075°30'0 0.0
2018-Jan-18 19:53N 10°21' W 075°30'0 0.0
2018-Jan-18 19:30N 10°21' W 075°30'0 0.0
2018-Jan-18 18:54N 10°21' W 075°30'0 0.0
2018-Jan-18 18:29N 10°21' W 075°30'0 0.0
2018-Jan-18 17:51N 10°21' W 075°30'0 0.0
2018-Jan-18 17:28N 10°21' W 075°30'0 0.0
2018-Jan-18 16:57N 10°21' W 075°30'0 0.0
2018-Jan-18 16:28N 10°21' W 075°30'0 0.0
2018-Jan-18 15:58N 10°21' W 075°30'0 0.0
2018-Jan-18 15:24N 10°21' W 075°30'0 0.0
2018-Jan-18 15:00N 10°21' W 075°30'0 0.0
2018-Jan-18 14:29N 10°21' W 075°30'0 0.0
2018-Jan-18 13:55N 10°21' W 075°30'0 0.0
2018-Jan-18 13:30N 10°21' W 075°30'0 0.0
2018-Jan-18 13:00N 10°21' W 075°30'0 0.0
2018-Jan-18 12:27N 10°21' W 075°30'0 0.0
2018-Jan-18 11:56N 10°21' W 075°30'0 0.0
2018-Jan-18 11:29N 10°21' W 075°30'0 0.0
2018-Jan-18 11:00N 10°21' W 075°30'0 0.0
2018-Jan-18 10:30N 10°21' W 075°30'0 0.0
2018-Jan-18 09:58N 10°21' W 075°30'0 0.0
2018-Jan-18 09:30N 10°21' W 075°30'0 0.0
2018-Jan-18 08:59N 10°21' W 075°30'0 0.0
2018-Jan-18 08:29N 10°21' W 075°30'0 0.0
2018-Jan-18 08:00N 10°21' W 075°30'0 0.0
2018-Jan-18 07:29N 10°21' W 075°30'0 0.0
2018-Jan-18 06:58N 10°21' W 075°30'0 0.0
2018-Jan-18 06:25N 10°21' W 075°30'0 0.0
2018-Jan-18 05:56N 10°21' W 075°30'0 0.0
2018-Jan-18 05:24N 10°21' W 075°30'0 0.0
2018-Jan-18 04:58N 10°21' W 075°30'0 0.0
2018-Jan-18 04:28N 10°21' W 075°30'0 0.0
2018-Jan-18 03:58N 10°21' W 075°30'0 0.0
2018-Jan-18 03:25N 10°21' W 075°30'0 0.0
2018-Jan-18 03:00N 10°21' W 075°30'0 0.0
2018-Jan-18 02:30N 10°21' W 075°30'0 0.0
2018-Jan-18 01:56N 10°21' W 075°30'0 0.0
2018-Jan-18 01:29N 10°21' W 075°30'0 0.0
2018-Jan-18 01:00N 10°21' W 075°30'0 0.0
2018-Jan-17 23:54N 10°21' W 075°30'  

Dump ship's entire track history